Saguache, CO

3:42 AM MDT on April 24, 2018 (GMT -0600)
Saguache

Weather History for K04V - November, 2014

Change the Weather History Date:

Tuesday, November 18, 2014

  Actual Average (KALS) Record (KALS)
Temperature  
Mean Temperature 24 °F -  
Max Temperature 41 °F 45 °F 62 °F (1949)
Min Temperature 8 °F 11 °F -22 °F (1958)
Degree Days  
Heating Degree Days 40    
Moisture  
Dew Point 5 °F    
Average Humidity 46    
Maximum Humidity 73    
Minimum Humidity 19    
Precipitation  
Precipitation 0.00 in - - ()
Sea Level Pressure  
Sea Level Pressure 30.25 in    
Wind  
Wind Speed 11 mph (NW)    
Max Wind Speed 23 mph    
Max Gust Speed 28 mph    
Visibility 10 miles    
Events      
Averages and records for this station are not official NWS values.
T = Trace of Precipitation, MM = Missing Value Source: NWS Daily Summary

Daily Weather History Graph

Daily Weather History Graph

Search for Another Location

Airport or City:

Astronomy

Nov. 18, 2014 Rise Set
Actual Time 6:48 AM MST 4:50 PM MST
Civil Twilight 6:20 AM MST 5:18 PM MST
Nautical Twilight 5:48 AM MST 5:50 PM MST
Astronomical Twilight 5:17 AM MST 6:22 PM MST
Moon 2:53 AM MST (11/18) 2:43 PM MST (11/18)
Length of Visible Light 10h 58m
Length of Day
10h 01m
Waning Crescent, 14% of the Moon is Illuminated
Nov 18
Waning Crescent
Nov 22
New
Nov 29
First Quarter
Dec 6
Full
Dec 14
Last Quarter

Hourly Weather History & Observations

Time (MST) Temp. Windchill Dew Point Humidity Pressure Visibility Wind Dir Wind Speed Gust Speed Precip Events Conditions
12:10 AM 17.6 °F 1.3 °F 1.4 °F 49% 30.23 in 10.0 mi NW 19.6 mph - N/A   Clear
12:33 AM 17.6 °F 2.7 °F 1.4 °F 49% 30.23 in 10.0 mi NW 16.1 mph - N/A   Clear
12:54 AM 17.6 °F 2.7 °F 1.4 °F 49% 30.23 in 10.0 mi NW 16.1 mph - N/A   Clear
1:14 AM 17.6 °F 3.2 °F 1.4 °F 49% 30.23 in 10.0 mi NW 15.0 mph - N/A   Clear
1:33 AM 15.8 °F 1.4 °F 1.4 °F 53% 30.23 in 10.0 mi NW 13.8 mph - N/A   Clear
1:51 AM 15.8 °F 2.7 °F 1.4 °F 53% 30.23 in 10.0 mi NW 11.5 mph - N/A   Clear
2:14 AM 15.8 °F 2.1 °F 1.4 °F 53% 30.23 in 10.0 mi NW 12.7 mph - N/A   Clear
2:33 AM 14.0 °F 1.2 °F 1.4 °F 57% 30.24 in 10.0 mi NW 10.4 mph - N/A   Clear
2:54 AM 14.0 °F 0.5 °F 3.2 °F 62% 30.24 in 10.0 mi NW 11.5 mph - N/A   Clear
3:14 AM 15.8 °F 3.4 °F 1.4 °F 53% 30.25 in 10.0 mi NW 10.4 mph - N/A   Clear
3:31 AM 15.8 °F 3.4 °F 1.4 °F 53% 30.25 in 10.0 mi NW 10.4 mph - N/A   Clear
3:52 AM 12.2 °F 0.7 °F 1.4 °F 62% 30.25 in 10.0 mi NNW 8.1 mph - N/A   Clear
4:14 AM 12.2 °F 0.7 °F 1.4 °F 62% 30.26 in 10.0 mi North 8.1 mph - N/A   Clear
4:33 AM 14.0 °F 2.9 °F 1.4 °F 57% 30.26 in 10.0 mi North 8.1 mph - N/A   Clear
4:47 AM 12.2 °F - 1.4 °F 62% 30.27 in 10.0 mi Calm Calm - N/A   Clear
5:14 AM 10.4 °F 2.2 °F 1.4 °F 67% 30.28 in 10.0 mi East 4.6 mph - N/A   Clear
5:33 AM 8.6 °F 2.0 °F 1.4 °F 73% 30.28 in 10.0 mi NNW 3.5 mph - N/A   Clear
5:54 AM 12.2 °F -0.2 °F 3.2 °F 67% 30.28 in 10.0 mi NW 9.2 mph - N/A   Clear
6:13 AM 12.2 °F 2.9 °F 3.2 °F 67% 30.28 in 10.0 mi WNW 5.8 mph - N/A   Clear
6:33 AM 12.2 °F 6.1 °F 1.4 °F 62% 30.29 in 10.0 mi NNW 3.5 mph - N/A   Clear
6:49 AM 12.2 °F -1.0 °F 3.2 °F 67% 30.28 in 10.0 mi NW 10.4 mph - N/A   Clear
7:14 AM 14.0 °F 5.1 °F 3.2 °F 62% 30.29 in 10.0 mi NW 5.8 mph - N/A   Clear
7:34 AM 17.6 °F 5.7 °F 3.2 °F 53% 30.29 in 10.0 mi NW 10.4 mph - N/A   Clear
7:54 AM 19.4 °F 6.6 °F 3.2 °F 49% 30.30 in 10.0 mi NW 12.7 mph - N/A   Clear
8:13 AM 21.2 °F 9.5 °F 5.0 °F 50% 30.29 in 10.0 mi NW 11.5 mph - N/A   Clear
8:34 AM 23.0 °F 12.4 °F 5.0 °F 46% 30.29 in 10.0 mi NW 10.4 mph - N/A   Clear
8:52 AM 26.6 °F 16.2 °F 5.0 °F 40% 30.29 in 10.0 mi NW 11.5 mph - N/A   Clear
9:10 AM 28.4 °F 19.7 °F 6.8 °F 40% 30.29 in 10.0 mi NW 9.2 mph - N/A   Clear
9:31 AM 28.4 °F - 6.8 °F 40% 30.30 in 10.0 mi Calm Calm - N/A   Clear
9:53 AM 30.2 °F 21.9 °F 6.8 °F 37% 30.29 in 10.0 mi SSE 9.2 mph - N/A   Clear
10:14 AM 30.2 °F 25.4 °F 8.6 °F 40% 30.29 in 10.0 mi SSW 4.6 mph - N/A   Clear
10:32 AM 32.0 °F - 8.6 °F 38% 30.29 in 10.0 mi Calm Calm - N/A   Clear
10:53 AM 33.8 °F 28.6 °F 5.0 °F 30% 30.29 in 10.0 mi NW 5.8 mph - N/A   Clear
11:10 AM 33.8 °F 27.7 °F 5.0 °F 30% 30.28 in 10.0 mi NW 6.9 mph - N/A   Clear
11:34 AM 33.8 °F 29.6 °F 5.0 °F 30% 30.26 in 10.0 mi South 4.6 mph - N/A   Clear
11:53 AM 33.8 °F - 5.0 °F 30% 30.24 in 10.0 mi Calm Calm - N/A   Clear
12:11 PM 35.6 °F 29.2 °F 5.0 °F 28% 30.24 in 10.0 mi NNW 8.1 mph - N/A   Clear
12:30 PM 35.6 °F 29.2 °F 5.0 °F 28% 30.23 in 10.0 mi NNW 8.1 mph - N/A   Clear
12:54 PM 37.4 °F - 5.0 °F 26% 30.22 in 10.0 mi Calm Calm - N/A   Clear
1:13 PM 39.2 °F 30.8 °F 3.2 °F 22% 30.21 in 10.0 mi NW 15.0 mph 23.0 mph N/A   Clear
1:31 PM 39.2 °F 28.7 °F 3.2 °F 22% 30.21 in 10.0 mi NW 23.0 mph - N/A   Clear
1:51 PM 39.2 °F 31.2 °F 3.2 °F 22% 30.21 in 10.0 mi NNW 13.8 mph 27.6 mph N/A   Clear
2:14 PM 41.0 °F 32.2 °F 1.4 °F 19% 30.21 in 10.0 mi NW 18.4 mph 26.5 mph N/A   Clear
2:34 PM 39.2 °F 30.5 °F 3.2 °F 22% 30.21 in 10.0 mi NNW 16.1 mph 25.3 mph N/A   Clear
2:54 PM 39.2 °F 29.8 °F 3.2 °F 22% 30.21 in 10.0 mi NNW 18.4 mph 24.2 mph N/A   Clear
3:12 PM 39.2 °F 30.2 °F 3.2 °F 22% 30.21 in 10.0 mi NW 17.3 mph 23.0 mph N/A   Clear
3:33 PM 37.4 °F 27.5 °F 3.2 °F 24% 30.21 in 10.0 mi NW 18.4 mph 21.9 mph N/A   Clear
3:50 PM 37.4 °F 28.2 °F 3.2 °F 24% 30.21 in 10.0 mi WNW 16.1 mph 20.7 mph N/A   Clear
4:11 PM 35.6 °F 26.2 °F 5.0 °F 28% 30.22 in 10.0 mi NW 15.0 mph 19.6 mph N/A   Clear
4:30 PM 33.8 °F 28.6 °F 5.0 °F 30% 30.22 in 10.0 mi WNW 5.8 mph - N/A   Clear
4:53 PM 32.0 °F 27.5 °F 5.0 °F 32% 30.22 in 10.0 mi West 4.6 mph - N/A   Clear
5:06 PM 32.0 °F 26.4 °F 6.8 °F 35% 30.22 in 10.0 mi WNW 5.8 mph - N/A   Clear
5:34 PM 30.2 °F 25.4 °F 6.8 °F 37% 30.23 in 10.0 mi NNW 4.6 mph - N/A   Clear
5:54 PM 30.2 °F 25.4 °F 6.8 °F 37% 30.24 in 10.0 mi WNW 4.6 mph - N/A   Clear
6:12 PM 28.4 °F 20.4 °F 8.6 °F 43% 30.23 in 10.0 mi WNW 8.1 mph - N/A   Clear
6:34 PM 28.4 °F 20.4 °F 8.6 °F 43% 30.24 in 10.0 mi WNW 8.1 mph - N/A   Clear
6:53 PM 26.6 °F 22.6 °F 8.6 °F 47% 30.25 in 10.0 mi NNW 3.5 mph - N/A   Clear
7:12 PM 26.6 °F 19.1 °F 8.6 °F 47% 30.25 in 10.0 mi WNW 6.9 mph - N/A   Clear
7:33 PM 26.6 °F 18.2 °F 8.6 °F 47% 30.24 in 10.0 mi NW 8.1 mph - N/A   Clear
7:54 PM 23.0 °F 13.9 °F 8.6 °F 54% 30.25 in 10.0 mi North 8.1 mph - N/A   Clear
8:14 PM 23.0 °F 14.7 °F 8.6 °F 54% 30.26 in 10.0 mi NNW 6.9 mph - N/A   Clear
8:34 PM 23.0 °F 14.7 °F 10.4 °F 59% 30.26 in 10.0 mi North 6.9 mph - N/A   Clear
8:48 PM 23.0 °F 15.8 °F 10.4 °F 59% 30.26 in 10.0 mi North 5.8 mph - N/A   Clear
9:11 PM 23.0 °F 13.9 °F 10.4 °F 59% 30.27 in 10.0 mi North 8.1 mph - N/A   Clear
9:34 PM 23.0 °F 13.9 °F 8.6 °F 54% 30.26 in 10.0 mi North 8.1 mph - N/A   Clear
9:54 PM 23.0 °F 13.1 °F 10.4 °F 59% 30.26 in 10.0 mi North 9.2 mph - N/A   Clear
10:14 PM 23.0 °F 13.9 °F 8.6 °F 54% 30.26 in 10.0 mi North 8.1 mph - N/A   Clear
10:34 PM 23.0 °F 13.9 °F 8.6 °F 54% 30.26 in 10.0 mi North 8.1 mph - N/A   Clear
10:45 PM 23.0 °F 13.9 °F 8.6 °F 54% 30.26 in 10.0 mi NNW 8.1 mph - N/A   Clear
11:14 PM 19.4 °F 9.5 °F 8.6 °F 63% 30.26 in 10.0 mi NNW 8.1 mph - N/A   Clear
11:31 PM 21.2 °F 12.6 °F 8.6 °F 58% 30.26 in 10.0 mi NNW 6.9 mph - N/A   Clear
11:50 PM 19.4 °F 9.5 °F 8.6 °F 63% 30.25 in 10.0 mi NNW 8.1 mph - N/A   Clear